<?xml version="1.0" encoding="UTF-8" standalone="no" ?>
<gpx xmlns="http://www.topografix.com/GPX/1/1" xmlns:xsi="http://www.w3.org/2001/XMLSchema-instance" xsi:schemaLocation="http://www.topografix.com/GPX/1/1 http://www.topografix.com/GPX/1/1/gpx.xsd" version="1.1" creator="VisuGPX - https://www.visugpx.com">
  <metadata>
    <name>SPT ROYAN-JAFFE 30/11/2011</name>
    <desc><![CDATA[Walkmeter Marche 29 nov. 2012 14:43:42]]></desc>
  </metadata>
  <trk>
    <name><![CDATA[Nouveau parcours]]></name>
    <trkseg>
      <trkpt lat="45.65401" lon="-1.02374">
        <ele>21.5</ele>
        <time>2012-11-29T13:43:42Z</time>
      </trkpt>
      <trkpt lat="45.65481" lon="-1.02308">
        <ele>21.4</ele>
        <time>2012-11-29T13:43:42Z</time>
      </trkpt>
      <trkpt lat="45.65491" lon="-1.02309">
        <ele>26.2</ele>
        <time>2012-11-29T13:44:09Z</time>
      </trkpt>
      <trkpt lat="45.65502" lon="-1.02328">
        <ele>26.2</ele>
        <time>2012-11-29T13:44:21Z</time>
      </trkpt>
      <trkpt lat="45.65506" lon="-1.02349">
        <ele>26.2</ele>
        <time>2012-11-29T13:44:36Z</time>
      </trkpt>
      <trkpt lat="45.6551" lon="-1.02368">
        <ele>26.2</ele>
        <time>2012-11-29T13:44:51Z</time>
      </trkpt>
      <trkpt lat="45.65512" lon="-1.02391">
        <ele>26.2</ele>
        <time>2012-11-29T13:45:03Z</time>
      </trkpt>
      <trkpt lat="45.65516" lon="-1.02411">
        <ele>26.2</ele>
        <time>2012-11-29T13:45:13Z</time>
      </trkpt>
      <trkpt lat="45.6552" lon="-1.0243">
        <ele>26.2</ele>
        <time>2012-11-29T13:45:25Z</time>
      </trkpt>
      <trkpt lat="45.65525" lon="-1.02449">
        <ele>26.2</ele>
        <time>2012-11-29T13:45:35Z</time>
      </trkpt>
      <trkpt lat="45.65531" lon="-1.02468">
        <ele>26.2</ele>
        <time>2012-11-29T13:45:46Z</time>
      </trkpt>
      <trkpt lat="45.65536" lon="-1.0249">
        <ele>26.2</ele>
        <time>2012-11-29T13:45:57Z</time>
      </trkpt>
      <trkpt lat="45.6554" lon="-1.0251">
        <ele>26.2</ele>
        <time>2012-11-29T13:46:14Z</time>
      </trkpt>
      <trkpt lat="45.65543" lon="-1.02531">
        <ele>26.2</ele>
        <time>2012-11-29T13:46:23Z</time>
      </trkpt>
      <trkpt lat="45.65552" lon="-1.02547">
        <ele>26.2</ele>
        <time>2012-11-29T13:46:38Z</time>
      </trkpt>
      <trkpt lat="45.65564" lon="-1.02567">
        <ele>26.2</ele>
        <time>2012-11-29T13:46:59Z</time>
      </trkpt>
      <trkpt lat="45.65578" lon="-1.02577">
        <ele>26.2</ele>
        <time>2012-11-29T13:47:11Z</time>
      </trkpt>
      <trkpt lat="45.6559" lon="-1.02583">
        <ele>26.2</ele>
        <time>2012-11-29T13:47:21Z</time>
      </trkpt>
      <trkpt lat="45.65599" lon="-1.02602">
        <ele>26.2</ele>
        <time>2012-11-29T13:47:31Z</time>
      </trkpt>
      <trkpt lat="45.65606" lon="-1.0262">
        <ele>26.2</ele>
        <time>2012-11-29T13:47:42Z</time>
      </trkpt>
      <trkpt lat="45.65611" lon="-1.0264">
        <ele>26.2</ele>
        <time>2012-11-29T13:47:52Z</time>
      </trkpt>
      <trkpt lat="45.65618" lon="-1.02658">
        <ele>26.2</ele>
        <time>2012-11-29T13:48:04Z</time>
      </trkpt>
      <trkpt lat="45.65626" lon="-1.02675">
        <ele>26.2</ele>
        <time>2012-11-29T13:48:16Z</time>
      </trkpt>
      <trkpt lat="45.65634" lon="-1.02691">
        <ele>26.2</ele>
        <time>2012-11-29T13:48:28Z</time>
      </trkpt>
      <trkpt lat="45.65636" lon="-1.02716">
        <ele>26.2</ele>
        <time>2012-11-29T13:48:36Z</time>
      </trkpt>
      <trkpt lat="45.65641" lon="-1.02735">
        <ele>26.2</ele>
        <time>2012-11-29T13:48:53Z</time>
      </trkpt>
      <trkpt lat="45.65645" lon="-1.02755">
        <ele>26.2</ele>
        <time>2012-11-29T13:49:06Z</time>
      </trkpt>
      <trkpt lat="45.65658" lon="-1.02766">
        <ele>26.2</ele>
        <time>2012-11-29T13:49:23Z</time>
      </trkpt>
      <trkpt lat="45.65667" lon="-1.02786">
        <ele>26.2</ele>
        <time>2012-11-29T13:49:35Z</time>
      </trkpt>
      <trkpt lat="45.6568" lon="-1.02789">
        <ele>26.2</ele>
        <time>2012-11-29T13:49:47Z</time>
      </trkpt>
      <trkpt lat="45.65693" lon="-1.02801">
        <ele>26.2</ele>
        <time>2012-11-29T13:50:01Z</time>
      </trkpt>
      <trkpt lat="45.65704" lon="-1.02814">
        <ele>26.2</ele>
        <time>2012-11-29T13:50:14Z</time>
      </trkpt>
      <trkpt lat="45.65717" lon="-1.02825">
        <ele>26.2</ele>
        <time>2012-11-29T13:50:26Z</time>
      </trkpt>
      <trkpt lat="45.6573" lon="-1.02834">
        <ele>26.2</ele>
        <time>2012-11-29T13:50:39Z</time>
      </trkpt>
      <trkpt lat="45.65746" lon="-1.02835">
        <ele>26.2</ele>
        <time>2012-11-29T13:50:54Z</time>
      </trkpt>
      <trkpt lat="45.65763" lon="-1.02832">
        <ele>26.2</ele>
        <time>2012-11-29T13:51:13Z</time>
      </trkpt>
      <trkpt lat="45.65778" lon="-1.02831">
        <ele>26.2</ele>
        <time>2012-11-29T13:51:25Z</time>
      </trkpt>
      <trkpt lat="45.65791" lon="-1.02833">
        <ele>26.2</ele>
        <time>2012-11-29T13:51:35Z</time>
      </trkpt>
      <trkpt lat="45.65806" lon="-1.02839">
        <ele>26.2</ele>
        <time>2012-11-29T13:51:43Z</time>
      </trkpt>
      <trkpt lat="45.65821" lon="-1.02844">
        <ele>26.2</ele>
        <time>2012-11-29T13:51:54Z</time>
      </trkpt>
      <trkpt lat="45.65833" lon="-1.02848">
        <ele>26.2</ele>
        <time>2012-11-29T13:52:06Z</time>
      </trkpt>
      <trkpt lat="45.65844" lon="-1.0286">
        <ele>26.2</ele>
        <time>2012-11-29T13:52:18Z</time>
      </trkpt>
      <trkpt lat="45.65856" lon="-1.02872">
        <ele>26.2</ele>
        <time>2012-11-29T13:52:28Z</time>
      </trkpt>
      <trkpt lat="45.65867" lon="-1.02891">
        <ele>26.2</ele>
        <time>2012-11-29T13:52:38Z</time>
      </trkpt>
      <trkpt lat="45.65878" lon="-1.02905">
        <ele>26.2</ele>
        <time>2012-11-29T13:52:52Z</time>
      </trkpt>
      <trkpt lat="45.65889" lon="-1.02919">
        <ele>26.2</ele>
        <time>2012-11-29T13:53:08Z</time>
      </trkpt>
      <trkpt lat="45.65901" lon="-1.02927">
        <ele>26.2</ele>
        <time>2012-11-29T13:53:21Z</time>
      </trkpt>
      <trkpt lat="45.65918" lon="-1.02928">
        <ele>26.2</ele>
        <time>2012-11-29T13:53:45Z</time>
      </trkpt>
      <trkpt lat="45.65926" lon="-1.02921">
        <ele>26.2</ele>
        <time>2012-11-29T13:53:58Z</time>
      </trkpt>
      <trkpt lat="45.6594" lon="-1.02918">
        <ele>26.2</ele>
        <time>2012-11-29T13:54:08Z</time>
      </trkpt>
      <trkpt lat="45.6595" lon="-1.02915">
        <ele>26.2</ele>
        <time>2012-11-29T13:54:17Z</time>
      </trkpt>
      <trkpt lat="45.65959" lon="-1.02897">
        <ele>26.2</ele>
        <time>2012-11-29T13:54:26Z</time>
      </trkpt>
      <trkpt lat="45.65971" lon="-1.02878">
        <ele>26.2</ele>
        <time>2012-11-29T13:54:35Z</time>
      </trkpt>
      <trkpt lat="45.65975" lon="-1.02859">
        <ele>26.2</ele>
        <time>2012-11-29T13:54:53Z</time>
      </trkpt>
      <trkpt lat="45.65977" lon="-1.02839">
        <ele>26.2</ele>
        <time>2012-11-29T13:55:08Z</time>
      </trkpt>
      <trkpt lat="45.65984" lon="-1.02821">
        <ele>26.2</ele>
        <time>2012-11-29T13:55:23Z</time>
      </trkpt>
      <trkpt lat="45.6599" lon="-1.02803">
        <ele>26.2</ele>
        <time>2012-11-29T13:55:35Z</time>
      </trkpt>
      <trkpt lat="45.66001" lon="-1.02782">
        <ele>26.2</ele>
        <time>2012-11-29T13:55:53Z</time>
      </trkpt>
      <trkpt lat="45.66002" lon="-1.02762">
        <ele>26.2</ele>
        <time>2012-11-29T13:56:05Z</time>
      </trkpt>
      <trkpt lat="45.66008" lon="-1.02743">
        <ele>26.2</ele>
        <time>2012-11-29T13:56:18Z</time>
      </trkpt>
      <trkpt lat="45.66017" lon="-1.02729">
        <ele>26.2</ele>
        <time>2012-11-29T13:56:30Z</time>
      </trkpt>
      <trkpt lat="45.66023" lon="-1.02711">
        <ele>26.2</ele>
        <time>2012-11-29T13:56:42Z</time>
      </trkpt>
      <trkpt lat="45.66023" lon="-1.02691">
        <ele>26.2</ele>
        <time>2012-11-29T13:56:53Z</time>
      </trkpt>
      <trkpt lat="45.66025" lon="-1.0267">
        <ele>26.2</ele>
        <time>2012-11-29T13:57:05Z</time>
      </trkpt>
      <trkpt lat="45.66027" lon="-1.02649">
        <ele>26.2</ele>
        <time>2012-11-29T13:57:18Z</time>
      </trkpt>
      <trkpt lat="45.66029" lon="-1.02628">
        <ele>26.2</ele>
        <time>2012-11-29T13:57:30Z</time>
      </trkpt>
      <trkpt lat="45.66031" lon="-1.02607">
        <ele>26.2</ele>
        <time>2012-11-29T13:57:43Z</time>
      </trkpt>
      <trkpt lat="45.6603" lon="-1.02587">
        <ele>26.2</ele>
        <time>2012-11-29T13:57:54Z</time>
      </trkpt>
      <trkpt lat="45.66034" lon="-1.02567">
        <ele>26.2</ele>
        <time>2012-11-29T13:58:07Z</time>
      </trkpt>
      <trkpt lat="45.66041" lon="-1.02549">
        <ele>26.2</ele>
        <time>2012-11-29T13:58:22Z</time>
      </trkpt>
      <trkpt lat="45.66052" lon="-1.02536">
        <ele>26.2</ele>
        <time>2012-11-29T13:58:36Z</time>
      </trkpt>
      <trkpt lat="45.66064" lon="-1.02526">
        <ele>26.2</ele>
        <time>2012-11-29T13:58:50Z</time>
      </trkpt>
      <trkpt lat="45.66076" lon="-1.02514">
        <ele>26.2</ele>
        <time>2012-11-29T13:59:03Z</time>
      </trkpt>
      <trkpt lat="45.6609" lon="-1.02505">
        <ele>26.2</ele>
        <time>2012-11-29T13:59:10Z</time>
      </trkpt>
      <trkpt lat="45.66102" lon="-1.02497">
        <ele>26.2</ele>
        <time>2012-11-29T13:59:21Z</time>
      </trkpt>
      <trkpt lat="45.66115" lon="-1.02487">
        <ele>26.2</ele>
        <time>2012-11-29T13:59:34Z</time>
      </trkpt>
      <trkpt lat="45.66126" lon="-1.02475">
        <ele>26.2</ele>
        <time>2012-11-29T13:59:45Z</time>
      </trkpt>
      <trkpt lat="45.6614" lon="-1.02466">
        <ele>26.2</ele>
        <time>2012-11-29T13:59:57Z</time>
      </trkpt>
      <trkpt lat="45.66154" lon="-1.02466">
        <ele>26.2</ele>
        <time>2012-11-29T14:00:11Z</time>
      </trkpt>
      <trkpt lat="45.66167" lon="-1.02475">
        <ele>26.2</ele>
        <time>2012-11-29T14:00:20Z</time>
      </trkpt>
      <trkpt lat="45.66178" lon="-1.02487">
        <ele>26.2</ele>
        <time>2012-11-29T14:00:30Z</time>
      </trkpt>
      <trkpt lat="45.66188" lon="-1.02501">
        <ele>26.2</ele>
        <time>2012-11-29T14:00:41Z</time>
      </trkpt>
      <trkpt lat="45.662" lon="-1.02515">
        <ele>26.2</ele>
        <time>2012-11-29T14:00:53Z</time>
      </trkpt>
      <trkpt lat="45.6621" lon="-1.02528">
        <ele>26.2</ele>
        <time>2012-11-29T14:01:03Z</time>
      </trkpt>
      <trkpt lat="45.6622" lon="-1.02543">
        <ele>26.2</ele>
        <time>2012-11-29T14:01:15Z</time>
      </trkpt>
      <trkpt lat="45.66231" lon="-1.02555">
        <ele>26.2</ele>
        <time>2012-11-29T14:01:27Z</time>
      </trkpt>
      <trkpt lat="45.66241" lon="-1.02568">
        <ele>26.2</ele>
        <time>2012-11-29T14:01:40Z</time>
      </trkpt>
      <trkpt lat="45.66251" lon="-1.02583">
        <ele>26.2</ele>
        <time>2012-11-29T14:01:53Z</time>
      </trkpt>
      <trkpt lat="45.66263" lon="-1.02594">
        <ele>26.2</ele>
        <time>2012-11-29T14:02:04Z</time>
      </trkpt>
      <trkpt lat="45.66275" lon="-1.02608">
        <ele>26.2</ele>
        <time>2012-11-29T14:02:14Z</time>
      </trkpt>
      <trkpt lat="45.66288" lon="-1.02622">
        <ele>26.2</ele>
        <time>2012-11-29T14:02:27Z</time>
      </trkpt>
      <trkpt lat="45.66304" lon="-1.02636">
        <ele>26.2</ele>
        <time>2012-11-29T14:02:41Z</time>
      </trkpt>
      <trkpt lat="45.66312" lon="-1.02651">
        <ele>26.2</ele>
        <time>2012-11-29T14:02:55Z</time>
      </trkpt>
      <trkpt lat="45.66306" lon="-1.0267">
        <ele>26.2</ele>
        <time>2012-11-29T14:03:09Z</time>
      </trkpt>
      <trkpt lat="45.66298" lon="-1.02691">
        <ele>26.2</ele>
        <time>2012-11-29T14:03:18Z</time>
      </trkpt>
      <trkpt lat="45.66306" lon="-1.02708">
        <ele>26.2</ele>
        <time>2012-11-29T14:03:33Z</time>
      </trkpt>
      <trkpt lat="45.66315" lon="-1.02727">
        <ele>26.2</ele>
        <time>2012-11-29T14:03:44Z</time>
      </trkpt>
      <trkpt lat="45.66325" lon="-1.02742">
        <ele>26.2</ele>
        <time>2012-11-29T14:03:58Z</time>
      </trkpt>
      <trkpt lat="45.66333" lon="-1.02758">
        <ele>26.2</ele>
        <time>2012-11-29T14:04:11Z</time>
      </trkpt>
      <trkpt lat="45.66338" lon="-1.02777">
        <ele>26.2</ele>
        <time>2012-11-29T14:04:23Z</time>
      </trkpt>
      <trkpt lat="45.66348" lon="-1.02793">
        <ele>26.2</ele>
        <time>2012-11-29T14:04:37Z</time>
      </trkpt>
      <trkpt lat="45.66355" lon="-1.0281">
        <ele>26.2</ele>
        <time>2012-11-29T14:04:52Z</time>
      </trkpt>
      <trkpt lat="45.66361" lon="-1.02827">
        <ele>26.2</ele>
        <time>2012-11-29T14:05:08Z</time>
      </trkpt>
      <trkpt lat="45.66368" lon="-1.02848">
        <ele>26.2</ele>
        <time>2012-11-29T14:05:26Z</time>
      </trkpt>
      <trkpt lat="45.6637" lon="-1.02868">
        <ele>26.2</ele>
        <time>2012-11-29T14:05:42Z</time>
      </trkpt>
      <trkpt lat="45.66374" lon="-1.02888">
        <ele>26.2</ele>
        <time>2012-11-29T14:05:54Z</time>
      </trkpt>
      <trkpt lat="45.66375" lon="-1.02908">
        <ele>26.2</ele>
        <time>2012-11-29T14:06:07Z</time>
      </trkpt>
      <trkpt lat="45.66381" lon="-1.02929">
        <ele>26.2</ele>
        <time>2012-11-29T14:06:21Z</time>
      </trkpt>
      <trkpt lat="45.66385" lon="-1.02954">
        <ele>26.2</ele>
        <time>2012-11-29T14:06:41Z</time>
      </trkpt>
      <trkpt lat="45.66385" lon="-1.02977">
        <ele>26.2</ele>
        <time>2012-11-29T14:06:53Z</time>
      </trkpt>
      <trkpt lat="45.66382" lon="-1.02997">
        <ele>26.2</ele>
        <time>2012-11-29T14:07:03Z</time>
      </trkpt>
      <trkpt lat="45.6637" lon="-1.03005">
        <ele>26.2</ele>
        <time>2012-11-29T14:07:16Z</time>
      </trkpt>
      <trkpt lat="45.6636" lon="-1.02996">
        <ele>26.2</ele>
        <time>2012-11-29T14:07:17Z</time>
      </trkpt>
      <trkpt lat="45.66343" lon="-1.02994">
        <ele>26.2</ele>
        <time>2012-11-29T14:07:30Z</time>
      </trkpt>
      <trkpt lat="45.66331" lon="-1.03003">
        <ele>26.2</ele>
        <time>2012-11-29T14:07:44Z</time>
      </trkpt>
      <trkpt lat="45.66317" lon="-1.03011">
        <ele>26.2</ele>
        <time>2012-11-29T14:07:56Z</time>
      </trkpt>
      <trkpt lat="45.66301" lon="-1.0302">
        <ele>25.9</ele>
        <time>2012-11-29T14:08:10Z</time>
      </trkpt>
      <trkpt lat="45.66289" lon="-1.03032">
        <ele>25.4</ele>
        <time>2012-11-29T14:08:28Z</time>
      </trkpt>
      <trkpt lat="45.66276" lon="-1.03036">
        <ele>25.1</ele>
        <time>2012-11-29T14:08:38Z</time>
      </trkpt>
      <trkpt lat="45.66265" lon="-1.03049">
        <ele>24.8</ele>
        <time>2012-11-29T14:08:49Z</time>
      </trkpt>
      <trkpt lat="45.66262" lon="-1.03073">
        <ele>24.5</ele>
        <time>2012-11-29T14:09:01Z</time>
      </trkpt>
      <trkpt lat="45.66264" lon="-1.03093">
        <ele>24.1</ele>
        <time>2012-11-29T14:09:15Z</time>
      </trkpt>
      <trkpt lat="45.66268" lon="-1.03113">
        <ele>23.8</ele>
        <time>2012-11-29T14:09:26Z</time>
      </trkpt>
      <trkpt lat="45.6627" lon="-1.03133">
        <ele>23.5</ele>
        <time>2012-11-29T14:09:36Z</time>
      </trkpt>
      <trkpt lat="45.66274" lon="-1.03152">
        <ele>23.2</ele>
        <time>2012-11-29T14:09:47Z</time>
      </trkpt>
      <trkpt lat="45.66279" lon="-1.0317">
        <ele>22.9</ele>
        <time>2012-11-29T14:10:00Z</time>
      </trkpt>
      <trkpt lat="45.66285" lon="-1.03189">
        <ele>22.6</ele>
        <time>2012-11-29T14:10:10Z</time>
      </trkpt>
      <trkpt lat="45.66294" lon="-1.03213">
        <ele>22.3</ele>
        <time>2012-11-29T14:10:20Z</time>
      </trkpt>
      <trkpt lat="45.66301" lon="-1.0323">
        <ele>21.9</ele>
        <time>2012-11-29T14:10:34Z</time>
      </trkpt>
      <trkpt lat="45.66309" lon="-1.03248">
        <ele>21.6</ele>
        <time>2012-11-29T14:10:47Z</time>
      </trkpt>
      <trkpt lat="45.66316" lon="-1.03267">
        <ele>21.2</ele>
        <time>2012-11-29T14:10:59Z</time>
      </trkpt>
      <trkpt lat="45.66322" lon="-1.03284">
        <ele>20.8</ele>
        <time>2012-11-29T14:11:13Z</time>
      </trkpt>
      <trkpt lat="45.66329" lon="-1.03303">
        <ele>20.6</ele>
        <time>2012-11-29T14:11:23Z</time>
      </trkpt>
      <trkpt lat="45.66334" lon="-1.03322">
        <ele>20.3</ele>
        <time>2012-11-29T14:11:33Z</time>
      </trkpt>
      <trkpt lat="45.66334" lon="-1.03341">
        <ele>20</ele>
        <time>2012-11-29T14:11:43Z</time>
      </trkpt>
      <trkpt lat="45.6633" lon="-1.0336">
        <ele>19.7</ele>
        <time>2012-11-29T14:11:54Z</time>
      </trkpt>
      <trkpt lat="45.66321" lon="-1.03375">
        <ele>19.4</ele>
        <time>2012-11-29T14:12:06Z</time>
      </trkpt>
      <trkpt lat="45.66311" lon="-1.03391">
        <ele>19.1</ele>
        <time>2012-11-29T14:12:17Z</time>
      </trkpt>
      <trkpt lat="45.66305" lon="-1.0341">
        <ele>18.7</ele>
        <time>2012-11-29T14:12:30Z</time>
      </trkpt>
      <trkpt lat="45.66306" lon="-1.0343">
        <ele>18.4</ele>
        <time>2012-11-29T14:12:41Z</time>
      </trkpt>
      <trkpt lat="45.66311" lon="-1.0345">
        <ele>18.1</ele>
        <time>2012-11-29T14:12:53Z</time>
      </trkpt>
      <trkpt lat="45.66319" lon="-1.03472">
        <ele>17.7</ele>
        <time>2012-11-29T14:13:05Z</time>
      </trkpt>
      <trkpt lat="45.66325" lon="-1.0349">
        <ele>17.4</ele>
        <time>2012-11-29T14:13:18Z</time>
      </trkpt>
      <trkpt lat="45.66332" lon="-1.03508">
        <ele>17</ele>
        <time>2012-11-29T14:13:30Z</time>
      </trkpt>
      <trkpt lat="45.6634" lon="-1.03527">
        <ele>16.7</ele>
        <time>2012-11-29T14:13:42Z</time>
      </trkpt>
      <trkpt lat="45.66347" lon="-1.03545">
        <ele>16.4</ele>
        <time>2012-11-29T14:13:54Z</time>
      </trkpt>
      <trkpt lat="45.66353" lon="-1.03563">
        <ele>16.2</ele>
        <time>2012-11-29T14:14:06Z</time>
      </trkpt>
      <trkpt lat="45.66361" lon="-1.03581">
        <ele>16.2</ele>
        <time>2012-11-29T14:14:18Z</time>
      </trkpt>
      <trkpt lat="45.66353" lon="-1.03607">
        <ele>16.3</ele>
        <time>2012-11-29T14:14:37Z</time>
      </trkpt>
      <trkpt lat="45.66353" lon="-1.03607">
        <ele>16.8</ele>
        <time>2012-11-29T14:16:12Z</time>
      </trkpt>
      <trkpt lat="45.66344" lon="-1.03618">
        <ele>16.8</ele>
        <time>2012-11-29T14:16:15Z</time>
      </trkpt>
      <trkpt lat="45.66333" lon="-1.0363">
        <ele>16.9</ele>
        <time>2012-11-29T14:16:29Z</time>
      </trkpt>
      <trkpt lat="45.66322" lon="-1.03642">
        <ele>16.9</ele>
        <time>2012-11-29T14:16:41Z</time>
      </trkpt>
      <trkpt lat="45.66313" lon="-1.03657">
        <ele>17</ele>
        <time>2012-11-29T14:16:55Z</time>
      </trkpt>
      <trkpt lat="45.66302" lon="-1.0367">
        <ele>17</ele>
        <time>2012-11-29T14:17:09Z</time>
      </trkpt>
      <trkpt lat="45.66291" lon="-1.03682">
        <ele>17.1</ele>
        <time>2012-11-29T14:17:23Z</time>
      </trkpt>
      <trkpt lat="45.6628" lon="-1.03695">
        <ele>17.2</ele>
        <time>2012-11-29T14:17:37Z</time>
      </trkpt>
      <trkpt lat="45.66268" lon="-1.03708">
        <ele>17.2</ele>
        <time>2012-11-29T14:17:50Z</time>
      </trkpt>
      <trkpt lat="45.66258" lon="-1.03722">
        <ele>17.3</ele>
        <time>2012-11-29T14:18:00Z</time>
      </trkpt>
      <trkpt lat="45.66247" lon="-1.03735">
        <ele>17.4</ele>
        <time>2012-11-29T14:18:15Z</time>
      </trkpt>
      <trkpt lat="45.66236" lon="-1.03747">
        <ele>17.4</ele>
        <time>2012-11-29T14:18:29Z</time>
      </trkpt>
      <trkpt lat="45.66225" lon="-1.03759">
        <ele>17.5</ele>
        <time>2012-11-29T14:18:43Z</time>
      </trkpt>
      <trkpt lat="45.66214" lon="-1.03774">
        <ele>17.6</ele>
        <time>2012-11-29T14:18:54Z</time>
      </trkpt>
      <trkpt lat="45.66204" lon="-1.03787">
        <ele>17.6</ele>
        <time>2012-11-29T14:19:04Z</time>
      </trkpt>
      <trkpt lat="45.66193" lon="-1.03802">
        <ele>17.7</ele>
        <time>2012-11-29T14:19:16Z</time>
      </trkpt>
      <trkpt lat="45.6618" lon="-1.0381">
        <ele>17.8</ele>
        <time>2012-11-29T14:19:49Z</time>
      </trkpt>
      <trkpt lat="45.66174" lon="-1.03809">
        <ele>17.9</ele>
        <time>2012-11-29T14:20:03Z</time>
      </trkpt>
      <trkpt lat="45.66159" lon="-1.03814">
        <ele>18</ele>
        <time>2012-11-29T14:20:22Z</time>
      </trkpt>
      <trkpt lat="45.66147" lon="-1.03824">
        <ele>18.1</ele>
        <time>2012-11-29T14:20:44Z</time>
      </trkpt>
      <trkpt lat="45.66134" lon="-1.03832">
        <ele>18.2</ele>
        <time>2012-11-29T14:21:08Z</time>
      </trkpt>
      <trkpt lat="45.66122" lon="-1.03842">
        <ele>18.3</ele>
        <time>2012-11-29T14:21:29Z</time>
      </trkpt>
      <trkpt lat="45.66109" lon="-1.03856">
        <ele>18.4</ele>
        <time>2012-11-29T14:21:44Z</time>
      </trkpt>
      <trkpt lat="45.66099" lon="-1.0387">
        <ele>18.5</ele>
        <time>2012-11-29T14:22:04Z</time>
      </trkpt>
      <trkpt lat="45.66086" lon="-1.03879">
        <ele>18.6</ele>
        <time>2012-11-29T14:22:18Z</time>
      </trkpt>
      <trkpt lat="45.66075" lon="-1.03891">
        <ele>18.6</ele>
        <time>2012-11-29T14:22:32Z</time>
      </trkpt>
      <trkpt lat="45.66062" lon="-1.03895">
        <ele>18.7</ele>
        <time>2012-11-29T14:22:46Z</time>
      </trkpt>
      <trkpt lat="45.66049" lon="-1.03887">
        <ele>18.8</ele>
        <time>2012-11-29T14:23:05Z</time>
      </trkpt>
      <trkpt lat="45.66036" lon="-1.03879">
        <ele>18.8</ele>
        <time>2012-11-29T14:23:19Z</time>
      </trkpt>
      <trkpt lat="45.66022" lon="-1.03873">
        <ele>18.9</ele>
        <time>2012-11-29T14:23:29Z</time>
      </trkpt>
      <trkpt lat="45.66011" lon="-1.0386">
        <ele>19</ele>
        <time>2012-11-29T14:23:42Z</time>
      </trkpt>
      <trkpt lat="45.66" lon="-1.03849">
        <ele>19</ele>
        <time>2012-11-29T14:23:57Z</time>
      </trkpt>
      <trkpt lat="45.6599" lon="-1.03834">
        <ele>19.1</ele>
        <time>2012-11-29T14:24:14Z</time>
      </trkpt>
      <trkpt lat="45.65977" lon="-1.03823">
        <ele>19.2</ele>
        <time>2012-11-29T14:24:30Z</time>
      </trkpt>
      <trkpt lat="45.65967" lon="-1.03817">
        <ele>19.3</ele>
        <time>2012-11-29T14:24:48Z</time>
      </trkpt>
      <trkpt lat="45.65952" lon="-1.03815">
        <ele>19.4</ele>
        <time>2012-11-29T14:25:03Z</time>
      </trkpt>
      <trkpt lat="45.65942" lon="-1.03802">
        <ele>19.4</ele>
        <time>2012-11-29T14:25:16Z</time>
      </trkpt>
      <trkpt lat="45.6593" lon="-1.0379">
        <ele>19.5</ele>
        <time>2012-11-29T14:25:30Z</time>
      </trkpt>
      <trkpt lat="45.65928" lon="-1.03771">
        <ele>19.6</ele>
        <time>2012-11-29T14:25:44Z</time>
      </trkpt>
      <trkpt lat="45.65915" lon="-1.03761">
        <ele>19.6</ele>
        <time>2012-11-29T14:25:57Z</time>
      </trkpt>
      <trkpt lat="45.659" lon="-1.03741">
        <ele>19.7</ele>
        <time>2012-11-29T14:26:15Z</time>
      </trkpt>
      <trkpt lat="45.65889" lon="-1.03723">
        <ele>19.8</ele>
        <time>2012-11-29T14:26:31Z</time>
      </trkpt>
      <trkpt lat="45.65882" lon="-1.037">
        <ele>19.8</ele>
        <time>2012-11-29T14:26:43Z</time>
      </trkpt>
      <trkpt lat="45.65855" lon="-1.03705">
        <ele>19.9</ele>
        <time>2012-11-29T14:27:05Z</time>
      </trkpt>
      <trkpt lat="45.65855" lon="-1.03705">
        <ele>20.2</ele>
        <time>2012-11-29T14:28:07Z</time>
      </trkpt>
      <trkpt lat="45.65841" lon="-1.03717">
        <ele>20.3</ele>
        <time>2012-11-29T14:28:15Z</time>
      </trkpt>
      <trkpt lat="45.65833" lon="-1.03734">
        <ele>20.4</ele>
        <time>2012-11-29T14:28:29Z</time>
      </trkpt>
      <trkpt lat="45.65827" lon="-1.03742">
        <ele>20.4</ele>
        <time>2012-11-29T14:28:40Z</time>
      </trkpt>
      <trkpt lat="45.65813" lon="-1.0374">
        <ele>20.5</ele>
        <time>2012-11-29T14:28:55Z</time>
      </trkpt>
      <trkpt lat="45.65802" lon="-1.03753">
        <ele>20.6</ele>
        <time>2012-11-29T14:29:10Z</time>
      </trkpt>
      <trkpt lat="45.65794" lon="-1.03769">
        <ele>20.6</ele>
        <time>2012-11-29T14:29:30Z</time>
      </trkpt>
      <trkpt lat="45.65788" lon="-1.03787">
        <ele>20.7</ele>
        <time>2012-11-29T14:29:41Z</time>
      </trkpt>
      <trkpt lat="45.65773" lon="-1.03784">
        <ele>20.8</ele>
        <time>2012-11-29T14:30:01Z</time>
      </trkpt>
      <trkpt lat="45.65758" lon="-1.03792">
        <ele>20.9</ele>
        <time>2012-11-29T14:30:19Z</time>
      </trkpt>
      <trkpt lat="45.65754" lon="-1.03811">
        <ele>21</ele>
        <time>2012-11-29T14:30:40Z</time>
      </trkpt>
      <trkpt lat="45.6575" lon="-1.0383">
        <ele>21.1</ele>
        <time>2012-11-29T14:30:56Z</time>
      </trkpt>
      <trkpt lat="45.65735" lon="-1.03842">
        <ele>21.2</ele>
        <time>2012-11-29T14:31:16Z</time>
      </trkpt>
      <trkpt lat="45.65721" lon="-1.03839">
        <ele>21.2</ele>
        <time>2012-11-29T14:31:29Z</time>
      </trkpt>
      <trkpt lat="45.65712" lon="-1.03827">
        <ele>21.3</ele>
        <time>2012-11-29T14:31:44Z</time>
      </trkpt>
      <trkpt lat="45.65712" lon="-1.03816">
        <ele>21.4</ele>
        <time>2012-11-29T14:31:55Z</time>
      </trkpt>
      <trkpt lat="45.65709" lon="-1.0381">
        <ele>21.4</ele>
        <time>2012-11-29T14:32:03Z</time>
      </trkpt>
      <trkpt lat="45.65695" lon="-1.0381">
        <ele>21.5</ele>
        <time>2012-11-29T14:32:26Z</time>
      </trkpt>
      <trkpt lat="45.65671" lon="-1.03794">
        <ele>21.6</ele>
        <time>2012-11-29T14:32:41Z</time>
      </trkpt>
      <trkpt lat="45.65671" lon="-1.03794">
        <ele>21.8</ele>
        <time>2012-11-29T14:33:21Z</time>
      </trkpt>
      <trkpt lat="45.65667" lon="-1.03777">
        <ele>21.9</ele>
        <time>2012-11-29T14:33:53Z</time>
      </trkpt>
      <trkpt lat="45.65667" lon="-1.03777">
        <ele>23.6</ele>
        <time>2012-11-29T14:39:40Z</time>
      </trkpt>
      <trkpt lat="45.65663" lon="-1.03762">
        <ele>23.6</ele>
        <time>2012-11-29T14:39:46Z</time>
      </trkpt>
      <trkpt lat="45.65663" lon="-1.03762">
        <ele>23.8</ele>
        <time>2012-11-29T14:40:20Z</time>
      </trkpt>
      <trkpt lat="45.65649" lon="-1.03758">
        <ele>23.9</ele>
        <time>2012-11-29T14:40:30Z</time>
      </trkpt>
      <trkpt lat="45.65644" lon="-1.03747">
        <ele>23.9</ele>
        <time>2012-11-29T14:40:38Z</time>
      </trkpt>
      <trkpt lat="45.65637" lon="-1.03729">
        <ele>24</ele>
        <time>2012-11-29T14:41:05Z</time>
      </trkpt>
      <trkpt lat="45.65642" lon="-1.03707">
        <ele>24.1</ele>
        <time>2012-11-29T14:41:21Z</time>
      </trkpt>
      <trkpt lat="45.65642" lon="-1.03665">
        <ele>24.3</ele>
        <time>2012-11-29T14:42:03Z</time>
      </trkpt>
      <trkpt lat="45.65642" lon="-1.03665">
        <ele>24.7</ele>
        <time>2012-11-29T14:43:29Z</time>
      </trkpt>
      <trkpt lat="45.65623" lon="-1.03628">
        <ele>24.8</ele>
        <time>2012-11-29T14:43:44Z</time>
      </trkpt>
      <trkpt lat="45.65623" lon="-1.03628">
        <ele>23.8</ele>
        <time>2012-11-29T14:54:54Z</time>
      </trkpt>
      <trkpt lat="45.65593" lon="-1.03598">
        <ele>23.7</ele>
        <time>2012-11-29T14:55:08Z</time>
      </trkpt>
      <trkpt lat="45.65593" lon="-1.03598">
        <ele>23.3</ele>
        <time>2012-11-29T14:56:19Z</time>
      </trkpt>
      <trkpt lat="45.65579" lon="-1.03582">
        <ele>23.2</ele>
        <time>2012-11-29T14:56:32Z</time>
      </trkpt>
      <trkpt lat="45.65567" lon="-1.03548">
        <ele>22.9</ele>
        <time>2012-11-29T14:57:14Z</time>
      </trkpt>
      <trkpt lat="45.65567" lon="-1.03548">
        <ele>22.7</ele>
        <time>2012-11-29T14:57:49Z</time>
      </trkpt>
      <trkpt lat="45.65558" lon="-1.03533">
        <ele>22.7</ele>
        <time>2012-11-29T14:57:52Z</time>
      </trkpt>
      <trkpt lat="45.65543" lon="-1.03528">
        <ele>22.5</ele>
        <time>2012-11-29T14:58:24Z</time>
      </trkpt>
      <trkpt lat="45.6553" lon="-1.0352">
        <ele>22.5</ele>
        <time>2012-11-29T14:58:34Z</time>
      </trkpt>
      <trkpt lat="45.65515" lon="-1.03517">
        <ele>22.4</ele>
        <time>2012-11-29T14:58:49Z</time>
      </trkpt>
      <trkpt lat="45.65502" lon="-1.03514">
        <ele>22.3</ele>
        <time>2012-11-29T14:59:00Z</time>
      </trkpt>
      <trkpt lat="45.65488" lon="-1.03509">
        <ele>22.2</ele>
        <time>2012-11-29T14:59:16Z</time>
      </trkpt>
      <trkpt lat="45.65474" lon="-1.03511">
        <ele>22.1</ele>
        <time>2012-11-29T14:59:31Z</time>
      </trkpt>
      <trkpt lat="45.65459" lon="-1.03515">
        <ele>22</ele>
        <time>2012-11-29T14:59:47Z</time>
      </trkpt>
      <trkpt lat="45.65447" lon="-1.03523">
        <ele>21.9</ele>
        <time>2012-11-29T15:00:03Z</time>
      </trkpt>
      <trkpt lat="45.65437" lon="-1.03538">
        <ele>21.8</ele>
        <time>2012-11-29T15:00:15Z</time>
      </trkpt>
      <trkpt lat="45.65427" lon="-1.03552">
        <ele>21.8</ele>
        <time>2012-11-29T15:00:28Z</time>
      </trkpt>
      <trkpt lat="45.65414" lon="-1.03564">
        <ele>21.7</ele>
        <time>2012-11-29T15:00:38Z</time>
      </trkpt>
      <trkpt lat="45.65401" lon="-1.03581">
        <ele>21.6</ele>
        <time>2012-11-29T15:00:53Z</time>
      </trkpt>
      <trkpt lat="45.65389" lon="-1.0359">
        <ele>21.5</ele>
        <time>2012-11-29T15:01:06Z</time>
      </trkpt>
      <trkpt lat="45.65376" lon="-1.03599">
        <ele>21.4</ele>
        <time>2012-11-29T15:01:23Z</time>
      </trkpt>
      <trkpt lat="45.65365" lon="-1.03611">
        <ele>21.4</ele>
        <time>2012-11-29T15:01:35Z</time>
      </trkpt>
      <trkpt lat="45.65354" lon="-1.03623">
        <ele>21.3</ele>
        <time>2012-11-29T15:01:44Z</time>
      </trkpt>
      <trkpt lat="45.65336" lon="-1.03631">
        <ele>21.2</ele>
        <time>2012-11-29T15:01:56Z</time>
      </trkpt>
      <trkpt lat="45.65323" lon="-1.03636">
        <ele>21.1</ele>
        <time>2012-11-29T15:02:15Z</time>
      </trkpt>
      <trkpt lat="45.6531" lon="-1.03644">
        <ele>21</ele>
        <time>2012-11-29T15:02:30Z</time>
      </trkpt>
      <trkpt lat="45.65292" lon="-1.03647">
        <ele>21</ele>
        <time>2012-11-29T15:02:42Z</time>
      </trkpt>
      <trkpt lat="45.65278" lon="-1.0365">
        <ele>20.9</ele>
        <time>2012-11-29T15:02:58Z</time>
      </trkpt>
      <trkpt lat="45.65263" lon="-1.03653">
        <ele>20.8</ele>
        <time>2012-11-29T15:03:12Z</time>
      </trkpt>
      <trkpt lat="45.65249" lon="-1.03655">
        <ele>20.7</ele>
        <time>2012-11-29T15:03:26Z</time>
      </trkpt>
      <trkpt lat="45.65232" lon="-1.03663">
        <ele>20.6</ele>
        <time>2012-11-29T15:03:40Z</time>
      </trkpt>
      <trkpt lat="45.65222" lon="-1.03677">
        <ele>20.5</ele>
        <time>2012-11-29T15:03:56Z</time>
      </trkpt>
      <trkpt lat="45.65217" lon="-1.03696">
        <ele>20.4</ele>
        <time>2012-11-29T15:04:09Z</time>
      </trkpt>
      <trkpt lat="45.65214" lon="-1.03717">
        <ele>20.4</ele>
        <time>2012-11-29T15:04:21Z</time>
      </trkpt>
      <trkpt lat="45.65214" lon="-1.03736">
        <ele>20.3</ele>
        <time>2012-11-29T15:04:34Z</time>
      </trkpt>
      <trkpt lat="45.6521" lon="-1.03755">
        <ele>20.2</ele>
        <time>2012-11-29T15:04:45Z</time>
      </trkpt>
      <trkpt lat="45.65203" lon="-1.03772">
        <ele>20.2</ele>
        <time>2012-11-29T15:04:54Z</time>
      </trkpt>
      <trkpt lat="45.65196" lon="-1.0379">
        <ele>20.1</ele>
        <time>2012-11-29T15:05:05Z</time>
      </trkpt>
      <trkpt lat="45.65187" lon="-1.03806">
        <ele>20</ele>
        <time>2012-11-29T15:05:15Z</time>
      </trkpt>
      <trkpt lat="45.65176" lon="-1.03819">
        <ele>20</ele>
        <time>2012-11-29T15:05:27Z</time>
      </trkpt>
      <trkpt lat="45.65166" lon="-1.03833">
        <ele>19.9</ele>
        <time>2012-11-29T15:05:40Z</time>
      </trkpt>
      <trkpt lat="45.65144" lon="-1.03847">
        <ele>19.7</ele>
        <time>2012-11-29T15:06:01Z</time>
      </trkpt>
      <trkpt lat="45.65144" lon="-1.03847">
        <ele>19.4</ele>
        <time>2012-11-29T15:06:53Z</time>
      </trkpt>
      <trkpt lat="45.65133" lon="-1.03853">
        <ele>19.4</ele>
        <time>2012-11-29T15:06:56Z</time>
      </trkpt>
      <trkpt lat="45.65137" lon="-1.03872">
        <ele>19.3</ele>
        <time>2012-11-29T15:07:15Z</time>
      </trkpt>
      <trkpt lat="45.65145" lon="-1.03887">
        <ele>19.2</ele>
        <time>2012-11-29T15:07:37Z</time>
      </trkpt>
      <trkpt lat="45.65158" lon="-1.03901">
        <ele>19.1</ele>
        <time>2012-11-29T15:07:52Z</time>
      </trkpt>
      <trkpt lat="45.6517" lon="-1.03911">
        <ele>19</ele>
        <time>2012-11-29T15:08:05Z</time>
      </trkpt>
      <trkpt lat="45.65182" lon="-1.03923">
        <ele>18.9</ele>
        <time>2012-11-29T15:08:17Z</time>
      </trkpt>
      <trkpt lat="45.65194" lon="-1.03938">
        <ele>18.8</ele>
        <time>2012-11-29T15:08:32Z</time>
      </trkpt>
      <trkpt lat="45.65207" lon="-1.03947">
        <ele>18.7</ele>
        <time>2012-11-29T15:08:51Z</time>
      </trkpt>
      <trkpt lat="45.65222" lon="-1.03955">
        <ele>18.6</ele>
        <time>2012-11-29T15:09:04Z</time>
      </trkpt>
      <trkpt lat="45.65234" lon="-1.03965">
        <ele>18.5</ele>
        <time>2012-11-29T15:09:21Z</time>
      </trkpt>
      <trkpt lat="45.65245" lon="-1.03976">
        <ele>18.5</ele>
        <time>2012-11-29T15:09:34Z</time>
      </trkpt>
      <trkpt lat="45.65257" lon="-1.03986">
        <ele>18.4</ele>
        <time>2012-11-29T15:09:46Z</time>
      </trkpt>
      <trkpt lat="45.65269" lon="-1.03996">
        <ele>18.3</ele>
        <time>2012-11-29T15:09:57Z</time>
      </trkpt>
      <trkpt lat="45.65278" lon="-1.04012">
        <ele>18.2</ele>
        <time>2012-11-29T15:10:11Z</time>
      </trkpt>
      <trkpt lat="45.65288" lon="-1.04027">
        <ele>18.2</ele>
        <time>2012-11-29T15:10:23Z</time>
      </trkpt>
      <trkpt lat="45.65298" lon="-1.0404">
        <ele>18.1</ele>
        <time>2012-11-29T15:10:36Z</time>
      </trkpt>
      <trkpt lat="45.65312" lon="-1.04051">
        <ele>18</ele>
        <time>2012-11-29T15:10:50Z</time>
      </trkpt>
      <trkpt lat="45.65327" lon="-1.04062">
        <ele>17.9</ele>
        <time>2012-11-29T15:11:02Z</time>
      </trkpt>
      <trkpt lat="45.65337" lon="-1.04075">
        <ele>17.8</ele>
        <time>2012-11-29T15:11:17Z</time>
      </trkpt>
      <trkpt lat="45.65349" lon="-1.04092">
        <ele>17.8</ele>
        <time>2012-11-29T15:11:28Z</time>
      </trkpt>
      <trkpt lat="45.65355" lon="-1.04109">
        <ele>17.7</ele>
        <time>2012-11-29T15:11:42Z</time>
      </trkpt>
      <trkpt lat="45.6536" lon="-1.04128">
        <ele>17.6</ele>
        <time>2012-11-29T15:11:55Z</time>
      </trkpt>
      <trkpt lat="45.65365" lon="-1.04148">
        <ele>17.6</ele>
        <time>2012-11-29T15:12:03Z</time>
      </trkpt>
      <trkpt lat="45.65371" lon="-1.04165">
        <ele>17.5</ele>
        <time>2012-11-29T15:12:14Z</time>
      </trkpt>
      <trkpt lat="45.65376" lon="-1.04185">
        <ele>17.4</ele>
        <time>2012-11-29T15:12:30Z</time>
      </trkpt>
      <trkpt lat="45.65381" lon="-1.04208">
        <ele>17.3</ele>
        <time>2012-11-29T15:12:47Z</time>
      </trkpt>
      <trkpt lat="45.6539" lon="-1.0423">
        <ele>17.2</ele>
        <time>2012-11-29T15:13:03Z</time>
      </trkpt>
      <trkpt lat="45.65393" lon="-1.04252">
        <ele>17.1</ele>
        <time>2012-11-29T15:13:23Z</time>
      </trkpt>
      <trkpt lat="45.65381" lon="-1.04262">
        <ele>17</ele>
        <time>2012-11-29T15:13:35Z</time>
      </trkpt>
      <trkpt lat="45.65368" lon="-1.0427">
        <ele>16.9</ele>
        <time>2012-11-29T15:13:45Z</time>
      </trkpt>
      <trkpt lat="45.65351" lon="-1.04275">
        <ele>16.9</ele>
        <time>2012-11-29T15:13:56Z</time>
      </trkpt>
      <trkpt lat="45.65337" lon="-1.04278">
        <ele>16.8</ele>
        <time>2012-11-29T15:14:09Z</time>
      </trkpt>
      <trkpt lat="45.65323" lon="-1.04281">
        <ele>16.7</ele>
        <time>2012-11-29T15:14:21Z</time>
      </trkpt>
      <trkpt lat="45.65305" lon="-1.04286">
        <ele>16.7</ele>
        <time>2012-11-29T15:14:30Z</time>
      </trkpt>
      <trkpt lat="45.65291" lon="-1.0429">
        <ele>16.6</ele>
        <time>2012-11-29T15:14:47Z</time>
      </trkpt>
      <trkpt lat="45.65278" lon="-1.04293">
        <ele>16.5</ele>
        <time>2012-11-29T15:14:59Z</time>
      </trkpt>
      <trkpt lat="45.65262" lon="-1.04298">
        <ele>16.4</ele>
        <time>2012-11-29T15:15:13Z</time>
      </trkpt>
      <trkpt lat="45.65248" lon="-1.04303">
        <ele>16.3</ele>
        <time>2012-11-29T15:15:25Z</time>
      </trkpt>
      <trkpt lat="45.65234" lon="-1.04303">
        <ele>16.3</ele>
        <time>2012-11-29T15:15:37Z</time>
      </trkpt>
      <trkpt lat="45.6522" lon="-1.04306">
        <ele>16.2</ele>
        <time>2012-11-29T15:15:49Z</time>
      </trkpt>
      <trkpt lat="45.65207" lon="-1.04316">
        <ele>16.2</ele>
        <time>2012-11-29T15:16:04Z</time>
      </trkpt>
      <trkpt lat="45.65194" lon="-1.04324">
        <ele>16.2</ele>
        <time>2012-11-29T15:16:17Z</time>
      </trkpt>
      <trkpt lat="45.65179" lon="-1.04328">
        <ele>16.3</ele>
        <time>2012-11-29T15:16:33Z</time>
      </trkpt>
      <trkpt lat="45.65167" lon="-1.04337">
        <ele>16.3</ele>
        <time>2012-11-29T15:16:44Z</time>
      </trkpt>
      <trkpt lat="45.65155" lon="-1.04346">
        <ele>16.4</ele>
        <time>2012-11-29T15:16:58Z</time>
      </trkpt>
      <trkpt lat="45.65141" lon="-1.04353">
        <ele>16.4</ele>
        <time>2012-11-29T15:17:09Z</time>
      </trkpt>
      <trkpt lat="45.65128" lon="-1.0436">
        <ele>16.5</ele>
        <time>2012-11-29T15:17:21Z</time>
      </trkpt>
      <trkpt lat="45.65116" lon="-1.04369">
        <ele>16.5</ele>
        <time>2012-11-29T15:17:34Z</time>
      </trkpt>
      <trkpt lat="45.65117" lon="-1.04389">
        <ele>16.6</ele>
        <time>2012-11-29T15:17:50Z</time>
      </trkpt>
      <trkpt lat="45.65125" lon="-1.04411">
        <ele>16.6</ele>
        <time>2012-11-29T15:18:04Z</time>
      </trkpt>
      <trkpt lat="45.65138" lon="-1.04419">
        <ele>16.7</ele>
        <time>2012-11-29T15:18:23Z</time>
      </trkpt>
      <trkpt lat="45.65154" lon="-1.04414">
        <ele>16.8</ele>
        <time>2012-11-29T15:18:40Z</time>
      </trkpt>
      <trkpt lat="45.65168" lon="-1.04408">
        <ele>16.8</ele>
        <time>2012-11-29T15:18:56Z</time>
      </trkpt>
      <trkpt lat="45.65182" lon="-1.04402">
        <ele>16.9</ele>
        <time>2012-11-29T15:19:09Z</time>
      </trkpt>
      <trkpt lat="45.65195" lon="-1.0441">
        <ele>16.9</ele>
        <time>2012-11-29T15:19:22Z</time>
      </trkpt>
      <trkpt lat="45.65204" lon="-1.04433">
        <ele>17</ele>
        <time>2012-11-29T15:19:37Z</time>
      </trkpt>
      <trkpt lat="45.65212" lon="-1.0445">
        <ele>17</ele>
        <time>2012-11-29T15:19:52Z</time>
      </trkpt>
      <trkpt lat="45.65225" lon="-1.04455">
        <ele>17.1</ele>
        <time>2012-11-29T15:20:04Z</time>
      </trkpt>
      <trkpt lat="45.65238" lon="-1.04463">
        <ele>17.1</ele>
        <time>2012-11-29T15:20:16Z</time>
      </trkpt>
      <trkpt lat="45.65247" lon="-1.04479">
        <ele>17.2</ele>
        <time>2012-11-29T15:20:30Z</time>
      </trkpt>
      <trkpt lat="45.65253" lon="-1.04498">
        <ele>17.2</ele>
        <time>2012-11-29T15:20:44Z</time>
      </trkpt>
      <trkpt lat="45.65258" lon="-1.04518">
        <ele>17.3</ele>
        <time>2012-11-29T15:20:56Z</time>
      </trkpt>
      <trkpt lat="45.65265" lon="-1.04534">
        <ele>17.3</ele>
        <time>2012-11-29T15:21:08Z</time>
      </trkpt>
      <trkpt lat="45.65267" lon="-1.04553">
        <ele>17.4</ele>
        <time>2012-11-29T15:21:22Z</time>
      </trkpt>
      <trkpt lat="45.65271" lon="-1.04575">
        <ele>17.4</ele>
        <time>2012-11-29T15:21:34Z</time>
      </trkpt>
      <trkpt lat="45.65281" lon="-1.04589">
        <ele>17.5</ele>
        <time>2012-11-29T15:21:50Z</time>
      </trkpt>
      <trkpt lat="45.65294" lon="-1.04594">
        <ele>17.5</ele>
        <time>2012-11-29T15:22:04Z</time>
      </trkpt>
      <trkpt lat="45.65308" lon="-1.046">
        <ele>17.6</ele>
        <time>2012-11-29T15:22:19Z</time>
      </trkpt>
      <trkpt lat="45.65321" lon="-1.04612">
        <ele>17.6</ele>
        <time>2012-11-29T15:22:30Z</time>
      </trkpt>
      <trkpt lat="45.6533" lon="-1.04627">
        <ele>17.7</ele>
        <time>2012-11-29T15:22:39Z</time>
      </trkpt>
      <trkpt lat="45.65337" lon="-1.04644">
        <ele>17.7</ele>
        <time>2012-11-29T15:22:52Z</time>
      </trkpt>
      <trkpt lat="45.65346" lon="-1.04659">
        <ele>17.8</ele>
        <time>2012-11-29T15:23:07Z</time>
      </trkpt>
      <trkpt lat="45.65354" lon="-1.04678">
        <ele>17.8</ele>
        <time>2012-11-29T15:23:18Z</time>
      </trkpt>
      <trkpt lat="45.65364" lon="-1.04694">
        <ele>17.9</ele>
        <time>2012-11-29T15:23:33Z</time>
      </trkpt>
      <trkpt lat="45.65371" lon="-1.04711">
        <ele>17.9</ele>
        <time>2012-11-29T15:23:44Z</time>
      </trkpt>
      <trkpt lat="45.65378" lon="-1.04731">
        <ele>17.9</ele>
        <time>2012-11-29T15:23:53Z</time>
      </trkpt>
      <trkpt lat="45.65389" lon="-1.04751">
        <ele>18</ele>
        <time>2012-11-29T15:24:04Z</time>
      </trkpt>
      <trkpt lat="45.65397" lon="-1.04767">
        <ele>18</ele>
        <time>2012-11-29T15:24:17Z</time>
      </trkpt>
      <trkpt lat="45.65403" lon="-1.04784">
        <ele>18.1</ele>
        <time>2012-11-29T15:24:28Z</time>
      </trkpt>
      <trkpt lat="45.65414" lon="-1.04801">
        <ele>18.1</ele>
        <time>2012-11-29T15:24:40Z</time>
      </trkpt>
      <trkpt lat="45.65422" lon="-1.04785">
        <ele>18.2</ele>
        <time>2012-11-29T15:24:55Z</time>
      </trkpt>
      <trkpt lat="45.65428" lon="-1.04765">
        <ele>18.2</ele>
        <time>2012-11-29T15:25:06Z</time>
      </trkpt>
      <trkpt lat="45.65441" lon="-1.04761">
        <ele>18.3</ele>
        <time>2012-11-29T15:25:22Z</time>
      </trkpt>
      <trkpt lat="45.65455" lon="-1.04775">
        <ele>18.3</ele>
        <time>2012-11-29T15:25:39Z</time>
      </trkpt>
      <trkpt lat="45.65465" lon="-1.04795">
        <ele>18.4</ele>
        <time>2012-11-29T15:25:53Z</time>
      </trkpt>
      <trkpt lat="45.65476" lon="-1.04809">
        <ele>18.4</ele>
        <time>2012-11-29T15:26:08Z</time>
      </trkpt>
      <trkpt lat="45.65486" lon="-1.04824">
        <ele>18.5</ele>
        <time>2012-11-29T15:26:18Z</time>
      </trkpt>
      <trkpt lat="45.65496" lon="-1.04837">
        <ele>18.5</ele>
        <time>2012-11-29T15:26:30Z</time>
      </trkpt>
      <trkpt lat="45.65503" lon="-1.04855">
        <ele>18.6</ele>
        <time>2012-11-29T15:26:39Z</time>
      </trkpt>
      <trkpt lat="45.65513" lon="-1.04871">
        <ele>18.6</ele>
        <time>2012-11-29T15:26:52Z</time>
      </trkpt>
      <trkpt lat="45.65523" lon="-1.04885">
        <ele>18.6</ele>
        <time>2012-11-29T15:27:03Z</time>
      </trkpt>
      <trkpt lat="45.65532" lon="-1.04903">
        <ele>18.7</ele>
        <time>2012-11-29T15:27:15Z</time>
      </trkpt>
      <trkpt lat="45.6554" lon="-1.04919">
        <ele>18.7</ele>
        <time>2012-11-29T15:27:29Z</time>
      </trkpt>
      <trkpt lat="45.65548" lon="-1.04936">
        <ele>18.8</ele>
        <time>2012-11-29T15:27:42Z</time>
      </trkpt>
      <trkpt lat="45.6556" lon="-1.04949">
        <ele>18.8</ele>
        <time>2012-11-29T15:27:56Z</time>
      </trkpt>
      <trkpt lat="45.65569" lon="-1.04964">
        <ele>18.9</ele>
        <time>2012-11-29T15:28:13Z</time>
      </trkpt>
      <trkpt lat="45.6558" lon="-1.04981">
        <ele>19</ele>
        <time>2012-11-29T15:28:24Z</time>
      </trkpt>
      <trkpt lat="45.65589" lon="-1.04996">
        <ele>19</ele>
        <time>2012-11-29T15:28:38Z</time>
      </trkpt>
      <trkpt lat="45.65598" lon="-1.0501">
        <ele>19.1</ele>
        <time>2012-11-29T15:28:50Z</time>
      </trkpt>
      <trkpt lat="45.6561" lon="-1.05021">
        <ele>19.1</ele>
        <time>2012-11-29T15:28:59Z</time>
      </trkpt>
      <trkpt lat="45.65621" lon="-1.05034">
        <ele>19.1</ele>
        <time>2012-11-29T15:29:09Z</time>
      </trkpt>
      <trkpt lat="45.6563" lon="-1.05049">
        <ele>19.2</ele>
        <time>2012-11-29T15:29:19Z</time>
      </trkpt>
      <trkpt lat="45.6564" lon="-1.05064">
        <ele>19.2</ele>
        <time>2012-11-29T15:29:31Z</time>
      </trkpt>
      <trkpt lat="45.6565" lon="-1.0508">
        <ele>19.2</ele>
        <time>2012-11-29T15:29:43Z</time>
      </trkpt>
      <trkpt lat="45.65659" lon="-1.05098">
        <ele>19.3</ele>
        <time>2012-11-29T15:29:59Z</time>
      </trkpt>
      <trkpt lat="45.65677" lon="-1.05119">
        <ele>19.4</ele>
        <time>2012-11-29T15:30:16Z</time>
      </trkpt>
      <trkpt lat="45.65677" lon="-1.05119">
        <ele>20.5</ele>
        <time>2012-11-29T15:35:20Z</time>
      </trkpt>
      <trkpt lat="45.65685" lon="-1.05124">
        <ele>20.5</ele>
        <time>2012-11-29T15:35:21Z</time>
      </trkpt>
      <trkpt lat="45.65698" lon="-1.05118">
        <ele>20.6</ele>
        <time>2012-11-29T15:35:45Z</time>
      </trkpt>
      <trkpt lat="45.65709" lon="-1.05106">
        <ele>20.7</ele>
        <time>2012-11-29T15:35:56Z</time>
      </trkpt>
      <trkpt lat="45.6572" lon="-1.05094">
        <ele>20.7</ele>
        <time>2012-11-29T15:36:11Z</time>
      </trkpt>
      <trkpt lat="45.65731" lon="-1.05082">
        <ele>20.8</ele>
        <time>2012-11-29T15:36:23Z</time>
      </trkpt>
      <trkpt lat="45.65743" lon="-1.05065">
        <ele>20.8</ele>
        <time>2012-11-29T15:36:37Z</time>
      </trkpt>
      <trkpt lat="45.65759" lon="-1.0505">
        <ele>20.9</ele>
        <time>2012-11-29T15:36:56Z</time>
      </trkpt>
      <trkpt lat="45.6577" lon="-1.05039">
        <ele>20.9</ele>
        <time>2012-11-29T15:37:10Z</time>
      </trkpt>
      <trkpt lat="45.65781" lon="-1.05026">
        <ele>21</ele>
        <time>2012-11-29T15:37:19Z</time>
      </trkpt>
      <trkpt lat="45.65792" lon="-1.05016">
        <ele>21</ele>
        <time>2012-11-29T15:37:35Z</time>
      </trkpt>
      <trkpt lat="45.65805" lon="-1.05006">
        <ele>21.1</ele>
        <time>2012-11-29T15:37:49Z</time>
      </trkpt>
      <trkpt lat="45.65818" lon="-1.04997">
        <ele>21.1</ele>
        <time>2012-11-29T15:38:00Z</time>
      </trkpt>
      <trkpt lat="45.65832" lon="-1.04978">
        <ele>21.2</ele>
        <time>2012-11-29T15:38:17Z</time>
      </trkpt>
      <trkpt lat="45.65832" lon="-1.04978">
        <ele>21.3</ele>
        <time>2012-11-29T15:38:50Z</time>
      </trkpt>
      <trkpt lat="45.65833" lon="-1.04966">
        <ele>21.3</ele>
        <time>2012-11-29T15:39:00Z</time>
      </trkpt>
      <trkpt lat="45.65821" lon="-1.04953">
        <ele>21.4</ele>
        <time>2012-11-29T15:39:17Z</time>
      </trkpt>
      <trkpt lat="45.6581" lon="-1.04941">
        <ele>21.5</ele>
        <time>2012-11-29T15:39:32Z</time>
      </trkpt>
      <trkpt lat="45.65797" lon="-1.04923">
        <ele>21.5</ele>
        <time>2012-11-29T15:39:47Z</time>
      </trkpt>
      <trkpt lat="45.65787" lon="-1.04909">
        <ele>21.6</ele>
        <time>2012-11-29T15:40:00Z</time>
      </trkpt>
      <trkpt lat="45.65778" lon="-1.04894">
        <ele>21.6</ele>
        <time>2012-11-29T15:40:11Z</time>
      </trkpt>
      <trkpt lat="45.65764" lon="-1.04881">
        <ele>21.7</ele>
        <time>2012-11-29T15:40:23Z</time>
      </trkpt>
      <trkpt lat="45.65754" lon="-1.04868">
        <ele>21.7</ele>
        <time>2012-11-29T15:40:35Z</time>
      </trkpt>
      <trkpt lat="45.65742" lon="-1.04857">
        <ele>21.8</ele>
        <time>2012-11-29T15:40:48Z</time>
      </trkpt>
      <trkpt lat="45.65731" lon="-1.04846">
        <ele>21.8</ele>
        <time>2012-11-29T15:41:00Z</time>
      </trkpt>
      <trkpt lat="45.65718" lon="-1.04836">
        <ele>21.8</ele>
        <time>2012-11-29T15:41:10Z</time>
      </trkpt>
      <trkpt lat="45.65704" lon="-1.04834">
        <ele>21.9</ele>
        <time>2012-11-29T15:41:18Z</time>
      </trkpt>
      <trkpt lat="45.65696" lon="-1.04816">
        <ele>21.9</ele>
        <time>2012-11-29T15:41:33Z</time>
      </trkpt>
      <trkpt lat="45.65701" lon="-1.04797">
        <ele>22</ele>
        <time>2012-11-29T15:41:45Z</time>
      </trkpt>
      <trkpt lat="45.65706" lon="-1.04779">
        <ele>22</ele>
        <time>2012-11-29T15:41:51Z</time>
      </trkpt>
      <trkpt lat="45.65708" lon="-1.04759">
        <ele>22</ele>
        <time>2012-11-29T15:42:04Z</time>
      </trkpt>
      <trkpt lat="45.65705" lon="-1.0474">
        <ele>22.1</ele>
        <time>2012-11-29T15:42:16Z</time>
      </trkpt>
      <trkpt lat="45.65703" lon="-1.04721">
        <ele>22.1</ele>
        <time>2012-11-29T15:42:28Z</time>
      </trkpt>
      <trkpt lat="45.65699" lon="-1.04702">
        <ele>22.2</ele>
        <time>2012-11-29T15:42:39Z</time>
      </trkpt>
      <trkpt lat="45.65695" lon="-1.04681">
        <ele>22.2</ele>
        <time>2012-11-29T15:42:52Z</time>
      </trkpt>
      <trkpt lat="45.6569" lon="-1.0466">
        <ele>22.3</ele>
        <time>2012-11-29T15:43:04Z</time>
      </trkpt>
      <trkpt lat="45.65683" lon="-1.04641">
        <ele>22.3</ele>
        <time>2012-11-29T15:43:18Z</time>
      </trkpt>
      <trkpt lat="45.65676" lon="-1.04623">
        <ele>22.4</ele>
        <time>2012-11-29T15:43:31Z</time>
      </trkpt>
      <trkpt lat="45.6567" lon="-1.04605">
        <ele>22.4</ele>
        <time>2012-11-29T15:43:45Z</time>
      </trkpt>
      <trkpt lat="45.65665" lon="-1.04584">
        <ele>22.5</ele>
        <time>2012-11-29T15:43:57Z</time>
      </trkpt>
      <trkpt lat="45.65659" lon="-1.04566">
        <ele>22.5</ele>
        <time>2012-11-29T15:44:12Z</time>
      </trkpt>
      <trkpt lat="45.65652" lon="-1.04548">
        <ele>22.6</ele>
        <time>2012-11-29T15:44:23Z</time>
      </trkpt>
      <trkpt lat="45.65645" lon="-1.04531">
        <ele>22.6</ele>
        <time>2012-11-29T15:44:34Z</time>
      </trkpt>
      <trkpt lat="45.65635" lon="-1.04515">
        <ele>22.7</ele>
        <time>2012-11-29T15:44:48Z</time>
      </trkpt>
      <trkpt lat="45.65626" lon="-1.04498">
        <ele>22.7</ele>
        <time>2012-11-29T15:45:07Z</time>
      </trkpt>
      <trkpt lat="45.65635" lon="-1.04462">
        <ele>22.8</ele>
        <time>2012-11-29T15:45:22Z</time>
      </trkpt>
      <trkpt lat="45.65635" lon="-1.04462">
        <ele>23.2</ele>
        <time>2012-11-29T15:47:02Z</time>
      </trkpt>
      <trkpt lat="45.65646" lon="-1.04446">
        <ele>23.2</ele>
        <time>2012-11-29T15:47:02Z</time>
      </trkpt>
      <trkpt lat="45.6566" lon="-1.04448">
        <ele>23.2</ele>
        <time>2012-11-29T15:47:13Z</time>
      </trkpt>
      <trkpt lat="45.65666" lon="-1.04448">
        <ele>23.2</ele>
        <time>2012-11-29T15:47:18Z</time>
      </trkpt>
      <trkpt lat="45.65631" lon="-1.04444">
        <ele>23.3</ele>
        <time>2012-11-29T15:47:48Z</time>
      </trkpt>
      <trkpt lat="45.65631" lon="-1.04444">
        <ele>24.1</ele>
        <time>2012-11-29T15:51:07Z</time>
      </trkpt>
      <trkpt lat="45.65611" lon="-1.04444">
        <ele>24.1</ele>
        <time>2012-11-29T15:51:19Z</time>
      </trkpt>
      <trkpt lat="45.65597" lon="-1.04442">
        <ele>24.2</ele>
        <time>2012-11-29T15:51:34Z</time>
      </trkpt>
      <trkpt lat="45.65581" lon="-1.0444">
        <ele>24.3</ele>
        <time>2012-11-29T15:51:52Z</time>
      </trkpt>
      <trkpt lat="45.65566" lon="-1.0444">
        <ele>24.3</ele>
        <time>2012-11-29T15:52:09Z</time>
      </trkpt>
      <trkpt lat="45.65552" lon="-1.04435">
        <ele>24.4</ele>
        <time>2012-11-29T15:52:21Z</time>
      </trkpt>
      <trkpt lat="45.65539" lon="-1.04431">
        <ele>24.4</ele>
        <time>2012-11-29T15:52:32Z</time>
      </trkpt>
      <trkpt lat="45.65524" lon="-1.04423">
        <ele>24.5</ele>
        <time>2012-11-29T15:52:45Z</time>
      </trkpt>
      <trkpt lat="45.65511" lon="-1.04417">
        <ele>24.5</ele>
        <time>2012-11-29T15:53:00Z</time>
      </trkpt>
      <trkpt lat="45.65498" lon="-1.04411">
        <ele>24.6</ele>
        <time>2012-11-29T15:53:12Z</time>
      </trkpt>
      <trkpt lat="45.65485" lon="-1.04402">
        <ele>24.6</ele>
        <time>2012-11-29T15:53:23Z</time>
      </trkpt>
      <trkpt lat="45.65474" lon="-1.0439">
        <ele>24.6</ele>
        <time>2012-11-29T15:53:34Z</time>
      </trkpt>
      <trkpt lat="45.65465" lon="-1.04375">
        <ele>24.7</ele>
        <time>2012-11-29T15:53:46Z</time>
      </trkpt>
      <trkpt lat="45.65461" lon="-1.04356">
        <ele>24.7</ele>
        <time>2012-11-29T15:53:57Z</time>
      </trkpt>
      <trkpt lat="45.65457" lon="-1.04337">
        <ele>24.8</ele>
        <time>2012-11-29T15:54:09Z</time>
      </trkpt>
      <trkpt lat="45.65454" lon="-1.04317">
        <ele>24.8</ele>
        <time>2012-11-29T15:54:21Z</time>
      </trkpt>
      <trkpt lat="45.65451" lon="-1.04297">
        <ele>24.9</ele>
        <time>2012-11-29T15:54:33Z</time>
      </trkpt>
      <trkpt lat="45.65448" lon="-1.04277">
        <ele>24.9</ele>
        <time>2012-11-29T15:54:44Z</time>
      </trkpt>
      <trkpt lat="45.65445" lon="-1.04257">
        <ele>24.9</ele>
        <time>2012-11-29T15:54:55Z</time>
      </trkpt>
      <trkpt lat="45.6545" lon="-1.04239">
        <ele>25</ele>
        <time>2012-11-29T15:55:10Z</time>
      </trkpt>
      <trkpt lat="45.65462" lon="-1.04226">
        <ele>25.1</ele>
        <time>2012-11-29T15:55:24Z</time>
      </trkpt>
      <trkpt lat="45.65472" lon="-1.04213">
        <ele>25.1</ele>
        <time>2012-11-29T15:55:35Z</time>
      </trkpt>
      <trkpt lat="45.65481" lon="-1.04197">
        <ele>25.1</ele>
        <time>2012-11-29T15:55:46Z</time>
      </trkpt>
      <trkpt lat="45.65491" lon="-1.04184">
        <ele>25.2</ele>
        <time>2012-11-29T15:55:55Z</time>
      </trkpt>
      <trkpt lat="45.65504" lon="-1.04169">
        <ele>25.2</ele>
        <time>2012-11-29T15:56:09Z</time>
      </trkpt>
      <trkpt lat="45.65518" lon="-1.04162">
        <ele>25.3</ele>
        <time>2012-11-29T15:56:25Z</time>
      </trkpt>
      <trkpt lat="45.65531" lon="-1.04155">
        <ele>25.3</ele>
        <time>2012-11-29T15:56:37Z</time>
      </trkpt>
      <trkpt lat="45.65545" lon="-1.04152">
        <ele>25.4</ele>
        <time>2012-11-29T15:56:49Z</time>
      </trkpt>
      <trkpt lat="45.65558" lon="-1.04147">
        <ele>25.4</ele>
        <time>2012-11-29T15:57:01Z</time>
      </trkpt>
      <trkpt lat="45.65572" lon="-1.04139">
        <ele>25.5</ele>
        <time>2012-11-29T15:57:11Z</time>
      </trkpt>
      <trkpt lat="45.65586" lon="-1.04132">
        <ele>25.5</ele>
        <time>2012-11-29T15:57:22Z</time>
      </trkpt>
      <trkpt lat="45.65599" lon="-1.04129">
        <ele>25.5</ele>
        <time>2012-11-29T15:57:34Z</time>
      </trkpt>
      <trkpt lat="45.65614" lon="-1.04124">
        <ele>25.6</ele>
        <time>2012-11-29T15:57:46Z</time>
      </trkpt>
      <trkpt lat="45.65625" lon="-1.04113">
        <ele>25.6</ele>
        <time>2012-11-29T15:57:59Z</time>
      </trkpt>
      <trkpt lat="45.65635" lon="-1.04099">
        <ele>25.7</ele>
        <time>2012-11-29T15:58:09Z</time>
      </trkpt>
      <trkpt lat="45.65647" lon="-1.04081">
        <ele>25.7</ele>
        <time>2012-11-29T15:58:22Z</time>
      </trkpt>
      <trkpt lat="45.65658" lon="-1.04065">
        <ele>25.8</ele>
        <time>2012-11-29T15:58:37Z</time>
      </trkpt>
      <trkpt lat="45.65668" lon="-1.04051">
        <ele>25.8</ele>
        <time>2012-11-29T15:58:48Z</time>
      </trkpt>
      <trkpt lat="45.6568" lon="-1.04036">
        <ele>25.9</ele>
        <time>2012-11-29T15:58:58Z</time>
      </trkpt>
      <trkpt lat="45.65692" lon="-1.04026">
        <ele>25.9</ele>
        <time>2012-11-29T15:59:12Z</time>
      </trkpt>
      <trkpt lat="45.65707" lon="-1.04021">
        <ele>26</ele>
        <time>2012-11-29T15:59:24Z</time>
      </trkpt>
      <trkpt lat="45.65719" lon="-1.0401">
        <ele>26</ele>
        <time>2012-11-29T15:59:35Z</time>
      </trkpt>
      <trkpt lat="45.65732" lon="-1.04004">
        <ele>26.1</ele>
        <time>2012-11-29T15:59:50Z</time>
      </trkpt>
      <trkpt lat="45.65744" lon="-1.03993">
        <ele>26.1</ele>
        <time>2012-11-29T16:00:00Z</time>
      </trkpt>
      <trkpt lat="45.65755" lon="-1.03981">
        <ele>26.1</ele>
        <time>2012-11-29T16:00:09Z</time>
      </trkpt>
      <trkpt lat="45.65765" lon="-1.03967">
        <ele>26.1</ele>
        <time>2012-11-29T16:00:21Z</time>
      </trkpt>
      <trkpt lat="45.65777" lon="-1.03953">
        <ele>26.1</ele>
        <time>2012-11-29T16:00:34Z</time>
      </trkpt>
      <trkpt lat="45.65787" lon="-1.0394">
        <ele>26.1</ele>
        <time>2012-11-29T16:00:46Z</time>
      </trkpt>
      <trkpt lat="45.65797" lon="-1.03927">
        <ele>26.1</ele>
        <time>2012-11-29T16:00:58Z</time>
      </trkpt>
      <trkpt lat="45.65807" lon="-1.03913">
        <ele>26</ele>
        <time>2012-11-29T16:01:11Z</time>
      </trkpt>
      <trkpt lat="45.65815" lon="-1.03896">
        <ele>26</ele>
        <time>2012-11-29T16:01:22Z</time>
      </trkpt>
      <trkpt lat="45.65826" lon="-1.03878">
        <ele>26</ele>
        <time>2012-11-29T16:01:34Z</time>
      </trkpt>
      <trkpt lat="45.65835" lon="-1.03864">
        <ele>26</ele>
        <time>2012-11-29T16:01:46Z</time>
      </trkpt>
      <trkpt lat="45.65843" lon="-1.03847">
        <ele>25.9</ele>
        <time>2012-11-29T16:01:59Z</time>
      </trkpt>
      <trkpt lat="45.65846" lon="-1.03826">
        <ele>25.9</ele>
        <time>2012-11-29T16:02:12Z</time>
      </trkpt>
      <trkpt lat="45.65847" lon="-1.03805">
        <ele>25.9</ele>
        <time>2012-11-29T16:02:23Z</time>
      </trkpt>
      <trkpt lat="45.65844" lon="-1.03784">
        <ele>25.9</ele>
        <time>2012-11-29T16:02:35Z</time>
      </trkpt>
      <trkpt lat="45.65844" lon="-1.03765">
        <ele>25.8</ele>
        <time>2012-11-29T16:02:47Z</time>
      </trkpt>
      <trkpt lat="45.65846" lon="-1.03745">
        <ele>25.8</ele>
        <time>2012-11-29T16:02:57Z</time>
      </trkpt>
      <trkpt lat="45.6585" lon="-1.03725">
        <ele>25.8</ele>
        <time>2012-11-29T16:03:07Z</time>
      </trkpt>
      <trkpt lat="45.65852" lon="-1.03706">
        <ele>25.8</ele>
        <time>2012-11-29T16:03:16Z</time>
      </trkpt>
      <trkpt lat="45.65851" lon="-1.03679">
        <ele>25.8</ele>
        <time>2012-11-29T16:03:31Z</time>
      </trkpt>
      <trkpt lat="45.65847" lon="-1.0366">
        <ele>25.7</ele>
        <time>2012-11-29T16:03:49Z</time>
      </trkpt>
      <trkpt lat="45.6584" lon="-1.03637">
        <ele>25.7</ele>
        <time>2012-11-29T16:04:01Z</time>
      </trkpt>
      <trkpt lat="45.65836" lon="-1.03619">
        <ele>25.7</ele>
        <time>2012-11-29T16:04:15Z</time>
      </trkpt>
      <trkpt lat="45.6583" lon="-1.03598">
        <ele>25.7</ele>
        <time>2012-11-29T16:04:25Z</time>
      </trkpt>
      <trkpt lat="45.65827" lon="-1.03579">
        <ele>25.6</ele>
        <time>2012-11-29T16:04:34Z</time>
      </trkpt>
      <trkpt lat="45.65824" lon="-1.03559">
        <ele>25.6</ele>
        <time>2012-11-29T16:04:47Z</time>
      </trkpt>
      <trkpt lat="45.65828" lon="-1.03539">
        <ele>25.6</ele>
        <time>2012-11-29T16:04:58Z</time>
      </trkpt>
      <trkpt lat="45.65836" lon="-1.03515">
        <ele>25.6</ele>
        <time>2012-11-29T16:05:10Z</time>
      </trkpt>
      <trkpt lat="45.65843" lon="-1.03496">
        <ele>25.5</ele>
        <time>2012-11-29T16:05:24Z</time>
      </trkpt>
      <trkpt lat="45.65848" lon="-1.03474">
        <ele>25.5</ele>
        <time>2012-11-29T16:05:36Z</time>
      </trkpt>
      <trkpt lat="45.65853" lon="-1.03455">
        <ele>25.5</ele>
        <time>2012-11-29T16:05:50Z</time>
      </trkpt>
      <trkpt lat="45.65858" lon="-1.03434">
        <ele>25.5</ele>
        <time>2012-11-29T16:06:01Z</time>
      </trkpt>
      <trkpt lat="45.65867" lon="-1.03413">
        <ele>25.4</ele>
        <time>2012-11-29T16:06:16Z</time>
      </trkpt>
      <trkpt lat="45.65875" lon="-1.03396">
        <ele>25.4</ele>
        <time>2012-11-29T16:06:29Z</time>
      </trkpt>
      <trkpt lat="45.65882" lon="-1.0338">
        <ele>25.4</ele>
        <time>2012-11-29T16:06:41Z</time>
      </trkpt>
      <trkpt lat="45.65889" lon="-1.03363">
        <ele>25.4</ele>
        <time>2012-11-29T16:06:50Z</time>
      </trkpt>
      <trkpt lat="45.65895" lon="-1.0334">
        <ele>25.4</ele>
        <time>2012-11-29T16:06:58Z</time>
      </trkpt>
      <trkpt lat="45.65902" lon="-1.03321">
        <ele>25.3</ele>
        <time>2012-11-29T16:07:10Z</time>
      </trkpt>
      <trkpt lat="45.65906" lon="-1.033">
        <ele>25.3</ele>
        <time>2012-11-29T16:07:23Z</time>
      </trkpt>
      <trkpt lat="45.65916" lon="-1.03271">
        <ele>25.3</ele>
        <time>2012-11-29T16:07:35Z</time>
      </trkpt>
      <trkpt lat="45.65919" lon="-1.03271">
        <ele>25.3</ele>
        <time>2012-11-29T16:07:43Z</time>
      </trkpt>
      <trkpt lat="45.65917" lon="-1.03233">
        <ele>25.2</ele>
        <time>2012-11-29T16:08:17Z</time>
      </trkpt>
      <trkpt lat="45.65915" lon="-1.03258">
        <ele>25.2</ele>
        <time>2012-11-29T16:08:31Z</time>
      </trkpt>
      <trkpt lat="45.65915" lon="-1.03258">
        <ele>25.1</ele>
        <time>2012-11-29T16:09:25Z</time>
      </trkpt>
      <trkpt lat="45.65916" lon="-1.03276">
        <ele>25.1</ele>
        <time>2012-11-29T16:09:29Z</time>
      </trkpt>
      <trkpt lat="45.65912" lon="-1.03302">
        <ele>25</ele>
        <time>2012-11-29T16:10:06Z</time>
      </trkpt>
      <trkpt lat="45.65888" lon="-1.0333">
        <ele>24.9</ele>
        <time>2012-11-29T16:10:35Z</time>
      </trkpt>
      <trkpt lat="45.65888" lon="-1.0333">
        <ele>24.9</ele>
        <time>2012-11-29T16:11:21Z</time>
      </trkpt>
      <trkpt lat="45.65873" lon="-1.03342">
        <ele>24.8</ele>
        <time>2012-11-29T16:11:40Z</time>
      </trkpt>
      <trkpt lat="45.6586" lon="-1.03333">
        <ele>24.8</ele>
        <time>2012-11-29T16:12:04Z</time>
      </trkpt>
      <trkpt lat="45.65847" lon="-1.03324">
        <ele>24.7</ele>
        <time>2012-11-29T16:12:21Z</time>
      </trkpt>
      <trkpt lat="45.65833" lon="-1.03321">
        <ele>24.7</ele>
        <time>2012-11-29T16:12:40Z</time>
      </trkpt>
      <trkpt lat="45.65818" lon="-1.03323">
        <ele>24.7</ele>
        <time>2012-11-29T16:12:59Z</time>
      </trkpt>
      <trkpt lat="45.65805" lon="-1.0332">
        <ele>24.6</ele>
        <time>2012-11-29T16:13:10Z</time>
      </trkpt>
      <trkpt lat="45.6579" lon="-1.03317">
        <ele>24.6</ele>
        <time>2012-11-29T16:13:28Z</time>
      </trkpt>
      <trkpt lat="45.65776" lon="-1.03316">
        <ele>24.6</ele>
        <time>2012-11-29T16:13:39Z</time>
      </trkpt>
      <trkpt lat="45.65762" lon="-1.03312">
        <ele>24.6</ele>
        <time>2012-11-29T16:13:51Z</time>
      </trkpt>
      <trkpt lat="45.65748" lon="-1.03313">
        <ele>24.5</ele>
        <time>2012-11-29T16:14:06Z</time>
      </trkpt>
      <trkpt lat="45.65733" lon="-1.03312">
        <ele>24.5</ele>
        <time>2012-11-29T16:14:24Z</time>
      </trkpt>
      <trkpt lat="45.6572" lon="-1.03305">
        <ele>24.5</ele>
        <time>2012-11-29T16:14:39Z</time>
      </trkpt>
      <trkpt lat="45.65707" lon="-1.03299">
        <ele>24.4</ele>
        <time>2012-11-29T16:14:59Z</time>
      </trkpt>
      <trkpt lat="45.65697" lon="-1.03284">
        <ele>24.4</ele>
        <time>2012-11-29T16:15:14Z</time>
      </trkpt>
      <trkpt lat="45.65687" lon="-1.0327">
        <ele>24.4</ele>
        <time>2012-11-29T16:15:27Z</time>
      </trkpt>
      <trkpt lat="45.65672" lon="-1.03262">
        <ele>24.3</ele>
        <time>2012-11-29T16:15:45Z</time>
      </trkpt>
      <trkpt lat="45.6566" lon="-1.03246">
        <ele>24.3</ele>
        <time>2012-11-29T16:16:05Z</time>
      </trkpt>
      <trkpt lat="45.65648" lon="-1.03229">
        <ele>24.3</ele>
        <time>2012-11-29T16:16:12Z</time>
      </trkpt>
      <trkpt lat="45.65634" lon="-1.03218">
        <ele>24.3</ele>
        <time>2012-11-29T16:16:30Z</time>
      </trkpt>
      <trkpt lat="45.65625" lon="-1.03216">
        <ele>24.2</ele>
        <time>2012-11-29T16:16:44Z</time>
      </trkpt>
      <trkpt lat="45.65617" lon="-1.03198">
        <ele>24.2</ele>
        <time>2012-11-29T16:17:08Z</time>
      </trkpt>
      <trkpt lat="45.65618" lon="-1.03174">
        <ele>24.1</ele>
        <time>2012-11-29T16:17:29Z</time>
      </trkpt>
      <trkpt lat="45.65625" lon="-1.03157">
        <ele>24.1</ele>
        <time>2012-11-29T16:17:47Z</time>
      </trkpt>
      <trkpt lat="45.65629" lon="-1.03142">
        <ele>24.1</ele>
        <time>2012-11-29T16:17:57Z</time>
      </trkpt>
      <trkpt lat="45.65636" lon="-1.03132">
        <ele>24.1</ele>
        <time>2012-11-29T16:18:08Z</time>
      </trkpt>
      <trkpt lat="45.6564" lon="-1.03114">
        <ele>24</ele>
        <time>2012-11-29T16:18:26Z</time>
      </trkpt>
      <trkpt lat="45.65644" lon="-1.03095">
        <ele>24</ele>
        <time>2012-11-29T16:18:39Z</time>
      </trkpt>
      <trkpt lat="45.65655" lon="-1.03075">
        <ele>24</ele>
        <time>2012-11-29T16:18:54Z</time>
      </trkpt>
      <trkpt lat="45.6566" lon="-1.03065">
        <ele>24</ele>
        <time>2012-11-29T16:19:03Z</time>
      </trkpt>
      <trkpt lat="45.65665" lon="-1.03064">
        <ele>23.9</ele>
        <time>2012-11-29T16:19:15Z</time>
      </trkpt>
      <trkpt lat="45.6567" lon="-1.03045">
        <ele>23.9</ele>
        <time>2012-11-29T16:19:30Z</time>
      </trkpt>
      <trkpt lat="45.65676" lon="-1.03025">
        <ele>23.9</ele>
        <time>2012-11-29T16:19:49Z</time>
      </trkpt>
      <trkpt lat="45.65683" lon="-1.03008">
        <ele>23.8</ele>
        <time>2012-11-29T16:20:07Z</time>
      </trkpt>
      <trkpt lat="45.65681" lon="-1.02991">
        <ele>23.8</ele>
        <time>2012-11-29T16:20:24Z</time>
      </trkpt>
      <trkpt lat="45.65689" lon="-1.02974">
        <ele>23.8</ele>
        <time>2012-11-29T16:20:40Z</time>
      </trkpt>
      <trkpt lat="45.65692" lon="-1.02963">
        <ele>23.8</ele>
        <time>2012-11-29T16:20:52Z</time>
      </trkpt>
      <trkpt lat="45.65698" lon="-1.02944">
        <ele>23.7</ele>
        <time>2012-11-29T16:21:13Z</time>
      </trkpt>
      <trkpt lat="45.65705" lon="-1.02925">
        <ele>23.7</ele>
        <time>2012-11-29T16:21:34Z</time>
      </trkpt>
      <trkpt lat="45.65715" lon="-1.02907">
        <ele>23.6</ele>
        <time>2012-11-29T16:21:54Z</time>
      </trkpt>
      <trkpt lat="45.65722" lon="-1.02884">
        <ele>23.6</ele>
        <time>2012-11-29T16:22:11Z</time>
      </trkpt>
      <trkpt lat="45.65725" lon="-1.02864">
        <ele>23.6</ele>
        <time>2012-11-29T16:22:32Z</time>
      </trkpt>
      <trkpt lat="45.65728" lon="-1.02844">
        <ele>23.5</ele>
        <time>2012-11-29T16:22:44Z</time>
      </trkpt>
      <trkpt lat="45.65727" lon="-1.0282">
        <ele>23.5</ele>
        <time>2012-11-29T16:22:59Z</time>
      </trkpt>
      <trkpt lat="45.65717" lon="-1.02809">
        <ele>23.5</ele>
        <time>2012-11-29T16:23:16Z</time>
      </trkpt>
      <trkpt lat="45.65704" lon="-1.02797">
        <ele>23.5</ele>
        <time>2012-11-29T16:23:28Z</time>
      </trkpt>
      <trkpt lat="45.65692" lon="-1.02788">
        <ele>23.4</ele>
        <time>2012-11-29T16:23:40Z</time>
      </trkpt>
      <trkpt lat="45.65679" lon="-1.0278">
        <ele>23.4</ele>
        <time>2012-11-29T16:23:52Z</time>
      </trkpt>
      <trkpt lat="45.65665" lon="-1.02774">
        <ele>23.4</ele>
        <time>2012-11-29T16:24:05Z</time>
      </trkpt>
      <trkpt lat="45.65654" lon="-1.0276">
        <ele>23.4</ele>
        <time>2012-11-29T16:24:18Z</time>
      </trkpt>
      <trkpt lat="45.65644" lon="-1.02746">
        <ele>23.3</ele>
        <time>2012-11-29T16:24:28Z</time>
      </trkpt>
      <trkpt lat="45.65637" lon="-1.02722">
        <ele>23.3</ele>
        <time>2012-11-29T16:24:44Z</time>
      </trkpt>
      <trkpt lat="45.65632" lon="-1.02703">
        <ele>23.3</ele>
        <time>2012-11-29T16:24:58Z</time>
      </trkpt>
      <trkpt lat="45.65627" lon="-1.02684">
        <ele>23.3</ele>
        <time>2012-11-29T16:25:11Z</time>
      </trkpt>
      <trkpt lat="45.65624" lon="-1.02665">
        <ele>23.2</ele>
        <time>2012-11-29T16:25:22Z</time>
      </trkpt>
      <trkpt lat="45.65617" lon="-1.02647">
        <ele>23.2</ele>
        <time>2012-11-29T16:25:34Z</time>
      </trkpt>
      <trkpt lat="45.6561" lon="-1.02631">
        <ele>23.2</ele>
        <time>2012-11-29T16:25:47Z</time>
      </trkpt>
      <trkpt lat="45.656" lon="-1.02617">
        <ele>23.2</ele>
        <time>2012-11-29T16:26:01Z</time>
      </trkpt>
      <trkpt lat="45.65594" lon="-1.02597">
        <ele>23.1</ele>
        <time>2012-11-29T16:26:11Z</time>
      </trkpt>
      <trkpt lat="45.65587" lon="-1.0258">
        <ele>23.1</ele>
        <time>2012-11-29T16:26:18Z</time>
      </trkpt>
      <trkpt lat="45.65576" lon="-1.02567">
        <ele>23.1</ele>
        <time>2012-11-29T16:26:33Z</time>
      </trkpt>
      <trkpt lat="45.65553" lon="-1.02544">
        <ele>23</ele>
        <time>2012-11-29T16:26:59Z</time>
      </trkpt>
      <trkpt lat="45.65553" lon="-1.02544">
        <ele>23</ele>
        <time>2012-11-29T16:27:32Z</time>
      </trkpt>
      <trkpt lat="45.65543" lon="-1.0253">
        <ele>23</ele>
        <time>2012-11-29T16:27:32Z</time>
      </trkpt>
      <trkpt lat="45.65538" lon="-1.02511">
        <ele>23</ele>
        <time>2012-11-29T16:27:45Z</time>
      </trkpt>
      <trkpt lat="45.65534" lon="-1.02492">
        <ele>22.9</ele>
        <time>2012-11-29T16:28:00Z</time>
      </trkpt>
      <trkpt lat="45.6553" lon="-1.02473">
        <ele>22.9</ele>
        <time>2012-11-29T16:28:11Z</time>
      </trkpt>
      <trkpt lat="45.65526" lon="-1.02453">
        <ele>22.9</ele>
        <time>2012-11-29T16:28:24Z</time>
      </trkpt>
      <trkpt lat="45.65519" lon="-1.02432">
        <ele>22.8</ele>
        <time>2012-11-29T16:28:42Z</time>
      </trkpt>
      <trkpt lat="45.65513" lon="-1.0241">
        <ele>22.8</ele>
        <time>2012-11-29T16:28:58Z</time>
      </trkpt>
      <trkpt lat="45.65508" lon="-1.02386">
        <ele>22.8</ele>
        <time>2012-11-29T16:29:16Z</time>
      </trkpt>
      <trkpt lat="45.65507" lon="-1.02365">
        <ele>22.8</ele>
        <time>2012-11-29T16:29:24Z</time>
      </trkpt>
      <trkpt lat="45.655" lon="-1.02348">
        <ele>22.7</ele>
        <time>2012-11-29T16:29:35Z</time>
      </trkpt>
      <trkpt lat="45.65495" lon="-1.02329">
        <ele>22.7</ele>
        <time>2012-11-29T16:29:57Z</time>
      </trkpt>
      <trkpt lat="45.65489" lon="-1.02307">
        <ele>22.7</ele>
        <time>2012-11-29T16:30:14Z</time>
      </trkpt>
      <trkpt lat="45.65484" lon="-1.02288">
        <ele>22.6</ele>
        <time>2012-11-29T16:30:29Z</time>
      </trkpt>
      <trkpt lat="45.65477" lon="-1.02272">
        <ele>22.6</ele>
        <time>2012-11-29T16:30:41Z</time>
      </trkpt>
      <trkpt lat="45.65465" lon="-1.02263">
        <ele>22.6</ele>
        <time>2012-11-29T16:30:53Z</time>
      </trkpt>
      <trkpt lat="45.65451" lon="-1.0226">
        <ele>22.6</ele>
        <time>2012-11-29T16:31:05Z</time>
      </trkpt>
      <trkpt lat="45.65437" lon="-1.0226">
        <ele>22.5</ele>
        <time>2012-11-29T16:31:18Z</time>
      </trkpt>
      <trkpt lat="45.65423" lon="-1.0226">
        <ele>22.5</ele>
        <time>2012-11-29T16:31:33Z</time>
      </trkpt>
      <trkpt lat="45.65415" lon="-1.02261">
        <ele>22.5</ele>
        <time>2012-11-29T16:31:40Z</time>
      </trkpt>
      <trkpt lat="45.65415" lon="-1.02261">
        <ele>22.5</ele>
        <time>2012-11-29T16:31:41Z</time>
      </trkpt>
    </trkseg>
  </trk>
</gpx>